Appleton, MN

2:09 PM CDT on March 23, 2017 (GMT -0500)
Appleton Municipal | | Change Station
Active Advisory: Special Statement

Elev 1017 ft 45.23 °N, 96.00 °W | Updated 14 minutes ago

Thunderstorms and Rain
Thunderstorm Rain
41 °F
Feels Like 34 °F
N
13
Wind Variable Wind from SSE
Gusts 25 mph

Today
High -- | Low -- °F
--% Chance of Precip.
Yesterday
High -- | Low -- °F
Precip. -- in
Pressure 29.80 in
Visibility 10.0 miles
Clouds Overcast 2300 ft
Windchill 34 °F
Dew Point 34 °F
Humidity 76%
Rainfall 0.00 in
Snow Depth Not available.
7:20 AM 7:40 PM
Waning Crescent, 21% visible
METAR KAQP 231855Z AUTO 15011G22KT 10SM TSRA OVC023 05/01 A2980 RMK AO2 LTG DSNT SE AND SW
Pressure 29.80 in
Visibility 10.0 miles
Clouds Overcast 2300 ft
Windchill 34 °F
Dew Point 34 °F
Humidity 76%
Rainfall 0.00 in
Snow Depth Not available.
7:20 AM 7:40 PM
Waning Crescent, 21% visible
METAR KAQP 231855Z AUTO 15011G22KT 10SM TSRA OVC023 05/01 A2980 RMK AO2 LTG DSNT SE AND SW

Get Your Daily Forecast Email!

Thanks for signing up!

Be on the lookout for a verification email in your inbox.

You'll start receiving severe weather alerts in your inbox..

×

10-Day Weather Forecast

Almanac

Astronomy

Mar. 23, 2017 Rise Set
Actual Time
Civil Twilight
Nautical Twilight
Astronomical Twilight
Moon
Length of Visible Light
Length of Day
Tomorrow will be .
, % of the Moon is Illuminated

Today's Extremes

State Highs State Lows

Community

WunderPhotos

Upload Photos

1,962,540 photos uploaded!

WunderBlog® & News

Nearby

Air Quality

  Air Quality AQ Index Pollutant
Not available.

Snow Depth

Station Depth Elevation

Earthquake Activity

City Distance Mag. Time & Date
Minimum magnitude displayed is 2.5.

Earthquake Activity

City Distance Mag. Time & Date
Minimum magnitude displayed is 2.5.

Coastal Water Temperatures

Place Temperature

Stations

Nearby Weather Stations

Station Location Temp. Windchill Dew Point Humidity Wind Precip. Elev Updated Type
                   

Watches & Warnings

Special Statement
Issued: 1:56 PM CDT Mar. 23, 2017 – National Weather Service

... A strong thunderstorm will affect northwestern Lac Qui Parle...
northwestern Chippewa and southwestern swift counties...

At 156 PM CDT, a strong thunderstorm was located over Marietta, or 19
miles southeast of Milbank, moving northeast at 50 mph.

Winds in excess of 40 mph and dime size hail are possible with this
storm.

Locations impacted include...
Madison, Appleton, Milan, Bellingham, Marietta, Cerro Gordo,
Louisburg and Appleton Airport.

This includes the following highways...
U.S. Highway 12 between mile markers 21 and 22.
U.S. Highway 212 between mile markers 1 and 2.
U.S. Highway 75 between mile markers 109 and 119.
U.S. Highway 59 between mile markers 136 and 138.

Lat... Lon 4503 9645 4520 9619 4519 9612 4518 9610
      4524 9610 4524 9612 4530 9603 4510 9586
      4492 9645
time... Mot... loc 1856z 235deg 45kt 4499 9640

Amk